Weather at Hospital R. Carrillo Heliport

Public forecast

Using degrees Celsius for public forecast. Weather courtesy of forecast.io.

Closest aviation weather report (METAR) to Hospital R. Carrillo Heliport

Closest report is Rosario Islas Malvinas International Airport, 4.9 nm (9.1 km) SW. Retrieved 2022/08/12 17:00 UTC (37 minutes ago):

SAAR 121700Z 02014KT 9999 FEW045 SCT200 22/10 Q1013 RMK PP000

Closest aviation forecast (TAF) to Hospital R. Carrillo Heliport

Closest forecast is Rosario Islas Malvinas International Airport, 4.9 nm (9.1 km) SW. Retrieved 2022/08/12 12:00 UTC (6 hours ago):

TAF SAAR 121100Z 1212/1312 05010KT CAVOK TX22/1218Z TN10/1311Z TEMPO 1215/1219 36015KT 9999 SCT030 BECMG 1223/1300 05005KT CAVOK TEMPO 1306/1311 VRB03KT 5000M BR SCT020